Terminal Aerodrome Forecast
Issued by NWS

Home | Current Version | Previous Version | Text Only | Print | Product List | Glossary On
Versions: 1 2 3 4 5 6 7 8 9 10 11 12 13 14 15 16 17 18
000
FTUS42 KTAE 251700
TAFDHN
TAF
KDHN 251723Z 2518/2618 22008KT P6SM VCTS BKN040CB
      TEMPO 2520/2524 3SM TSRA OVC040CB
     FM260000 22005KT P6SM SCT250
     FM260800 23003KT 3SM BR SKC
     FM261200 26006KT P6SM SCT040=

USA.gov is the U.S. government's official web portal to all federal, state and local government web resources and services.